Kezdőlap
METAR-TAF:

METAR-TAF

Repülőterek :

Irkutszk, Oroszország

földrajzi szélesség: 52-16N, földrajzi hosszúság: 104-19E, magasság: 513 m

Jelenlegi meteorológiai megfigyelések

A jelentés 13 perccel ezelõtt készült, 19:30 UTC
Kelet-délkeleti szél 4 kt
Hőmérséklet 6°C
Páratartalom 87%
Légköri nyomás 1013 hPa
Látótávolság 10 km, vagy több
felhőtlen 1500 m magasságban, és nincs gomolyfelhõ

METAR: UIII 271930Z 11002MPS CAVOK 06/04 Q1013 R12/CLRD60 NOSIG RMK QFE717/0956

Idő: 03:43 (19:43 UTC)

Előrejelzés

A jelentés 2 órával és 43 perccel ezelõtt készült, 17:00 UTC
Az előrejelzés 27-én 18 óra UTC és 28-én 18 óra UTC között érvényes
Dél-délkeleti szél 6 kt
Látótávolság 10 km, vagy több
felhőtlen 1500 m magasságban, és nincs gomolyfelhõ

TAF: UIII 271700Z 2718/2818 16003MPS CAVOK

Meteorológiai megfigyelések és előrejelzések több, mint 4000 repülőtéren (METAR és TAF jelentéseket).

A térképen piros és sárga pontok jelzik az elérhető meteorológiai állomásokat.

Mozgassa az egeret a pont fölött, hogy megjelenjen az állomás neve.

Azután kattintson az időjárási megfigyelések és előrejelzések megtekintéséhez.

A térkép megváltoztatása: kattintson a fekete keresztel jelölt zöld gombra ráközelítéshez, a vonallal jelölt zöld gombra távolításhoz, vagy a zöld nyilakra a szomszédos térképek eléréséhez.


METAR-TAF: